Bei Facebook empfehlenBei Twitter postenGoogle plusPinterest

Das Wetter im Erzgebirge am 20.12.2015

Wetter und Klima am 20.12.2015 Holzhau im Erzgebirge (630m ü.NN)
Letzte gemessene Temperatur und Uhrzeit der Messung23:45:00 Uhr1.70 °C
Temperatur (Maximum / Höchstwert) und Uhrzeit der Messung13:00:00 Uhr8.70 °C
Temperatur (Minimum / Tiefstwert) und Uhrzeit der Messung23:30:001.60 °C
Errechneter Absolutwert der Temperaturschwankungen zwischen Tmin und Tmax des Tages7.10 K
Errechnete Tagesmitteltemperatur3.98854 °C
Gesamt - Niederschlag des Tages (in flüssiger Form)0.00 Liter / m²
Luftdruck (Maximum / Höchstwert) und Zeitpunkt der Messung00:00:00 Uhr1019.90 hPa
Luftdruck (Minimum / Tiefstwert) und Zeitpunkt der Messung08:15:00 Uhr1018.20 hPa
Errechneter Absolutwert der Luftdruckschwankungen des Tages1.70 hPa
Höchste gemessene Windgeschwindigkeit und Uhrzeit der Messung14:00:00 Uhr24.12 km/h
Errechnete Windhäufigkeit in Relation zu den Messwerten des Tages41.66667 %
Niedrigste Windkühle (Windchill) und Zeitpunkt der Messung23:15:00 Uhr-0.10 °C
Taupunkt (Maximum / Höchstwert) und Uhrzeit der Messung13:00:00 Uhr8.30 °C
Taupunkt (Minimum / Tiefstwert) und Uhrzeit der Messung23:30:001.00 °C
Anzahl der automatisch eingelesenen Messwerte 96

Detaillierte Wetter- und Klima- Messwerte für den 20.12.2015 in Holzhau im Erzgebirge (630m ü.NN)
ZeitTemperaturLuftdruckRel. LuftfeuchteWindWindrichtungWindchillTaupunktNiederschlag l/m²
23:45:001.70 °C1018.60 hPa96.00 %3.96 km/hOSO1.70 °C1.10 °C 
23:30:001.60 °C1018.70 hPa96.00 %1.00 °C 
23:15:001.60 °C1018.70 hPa96.00 %5.76 km/hSSO-0.10 °C1.00 °C 
23:00:001.80 °C1018.70 hPa96.00 %1.80 km/hNNO1.80 °C1.20 °C 
22:45:001.90 °C1018.80 hPa96.00 %1.30 °C 
22:30:001.90 °C1018.70 hPa96.00 %6.48 km/hSO0.00 °C1.30 °C 
22:15:001.90 °C1018.90 hPa96.00 %6.48 km/hO0.00 °C1.30 °C 
22:00:001.90 °C1019.10 hPa96.00 %4.68 km/hO1.90 °C1.30 °C 
21:45:001.90 °C1019.10 hPa95.00 %1.08 km/hO1.90 °C1.20 °C 
21:30:002.10 °C1019.00 hPa95.00 %6.12 km/hOSO0.30 °C1.40 °C 
21:15:002.10 °C1019.00 hPa95.00 %2.52 km/hOSO2.10 °C1.40 °C 
21:00:002.10 °C1018.90 hPa96.00 %1.50 °C 
20:45:002.20 °C1018.90 hPa96.00 %4.68 km/hOSO2.20 °C1.60 °C 
20:30:002.10 °C1018.80 hPa95.00 %3.96 km/hO2.10 °C1.40 °C 
20:15:001.90 °C1018.60 hPa95.00 %1.44 km/hONO1.90 °C1.20 °C 
20:00:001.90 °C1018.80 hPa95.00 %1.20 °C 
19:45:002.10 °C1018.70 hPa95.00 %1.40 °C 
19:30:002.10 °C1018.70 hPa96.00 %1.50 °C 
19:15:001.90 °C1018.60 hPa95.00 %3.96 km/hSO1.90 °C1.20 °C 
19:00:002.10 °C1018.60 hPa95.00 %1.40 °C 
18:45:002.10 °C1018.40 hPa96.00 %3.96 km/hNO2.10 °C1.50 °C 
18:30:002.20 °C1018.50 hPa95.00 %1.50 °C 
18:15:002.20 °C1018.50 hPa95.00 %1.50 °C 
18:00:002.10 °C1018.50 hPa95.00 %1.40 °C 
17:45:002.10 °C1018.30 hPa95.00 %1.40 °C 
17:30:001.90 °C1018.30 hPa95.00 %4.32 km/hO1.90 °C1.20 °C 
17:15:001.90 °C1018.60 hPa95.00 %1.20 °C 
17:00:001.90 °C1018.80 hPa95.00 %1.20 °C 
16:45:001.90 °C1018.80 hPa95.00 %1.20 °C 
16:30:002.10 °C1018.60 hPa95.00 %1.40 °C 
16:15:002.40 °C1018.70 hPa94.00 %4.32 km/hNNO2.40 °C1.50 °C 
16:00:002.60 °C1018.70 hPa94.00 %1.70 °C 
15:45:002.80 °C1018.70 hPa94.00 %1.90 °C 
15:30:003.10 °C1018.80 hPa95.00 %6.48 km/hNNW1.40 °C2.40 °C 
15:15:003.60 °C1018.60 hPa94.00 %2.70 °C 
15:00:004.40 °C1018.50 hPa94.00 %3.50 °C 
14:45:005.50 °C1018.40 hPa95.00 %4.80 °C 
14:30:005.80 °C1018.30 hPa95.00 %5.10 °C 
14:15:005.80 °C1018.30 hPa95.00 %7.92 km/hSSW4.10 °C5.10 °C 
14:00:005.60 °C1018.50 hPa95.00 %24.12 km/hSW1.40 °C4.90 °C 
13:45:006.30 °C1018.60 hPa95.00 %8.28 km/hSW4.60 °C5.60 °C 
13:30:007.30 °C1018.50 hPa96.00 %10.08 km/hSW5.40 °C6.70 °C 
13:15:007.80 °C1018.60 hPa96.00 %4.32 km/hSSO7.80 °C7.20 °C 
13:00:008.70 °C1018.60 hPa97.00 %13.68 km/hWSW6.50 °C8.30 °C 
12:45:008.70 °C1018.30 hPa97.00 %6.48 km/hSSW7.80 °C8.30 °C 
12:30:008.30 °C1018.40 hPa97.00 %2.16 km/hWSW8.30 °C7.90 °C 
12:15:008.30 °C1018.60 hPa97.00 %7.90 °C 
12:00:008.00 °C1018.50 hPa97.00 %7.60 °C 
11:45:008.10 °C1018.70 hPa97.00 %7.70 °C 
11:30:007.90 °C1018.60 hPa97.00 %7.50 °C 
11:15:007.60 °C1018.80 hPa97.00 %4.32 km/hSSO7.60 °C7.20 °C 
11:00:007.00 °C1018.90 hPa98.00 %6.70 °C 
10:45:006.20 °C1018.80 hPa97.00 %6.84 km/hSSO4.90 °C5.80 °C 
10:30:005.90 °C1018.70 hPa97.00 %4.32 km/hSO5.90 °C5.50 °C 
10:15:005.80 °C1018.70 hPa97.00 %2.16 km/hSO5.80 °C5.40 °C 
10:00:005.40 °C1018.80 hPa97.00 %2.88 km/hSO5.40 °C5.00 °C 
09:45:004.90 °C1018.70 hPa97.00 %4.50 °C 
09:30:004.60 °C1018.50 hPa97.00 %1.80 km/hONO4.60 °C4.20 °C 
09:15:004.60 °C1018.70 hPa97.00 %4.20 °C 
09:00:004.40 °C1018.40 hPa97.00 %4.00 °C 
08:45:004.60 °C1018.50 hPa97.00 %5.40 km/hO3.50 °C4.20 °C 
08:30:004.30 °C1018.40 hPa97.00 %3.90 °C 
08:15:003.80 °C1018.20 hPa97.00 %3.40 °C 
08:00:003.80 °C1018.30 hPa97.00 %3.40 °C 
07:45:003.80 °C1018.30 hPa97.00 %5.40 km/hO2.60 °C3.40 °C 
07:30:003.70 °C1018.20 hPa97.00 %2.88 km/hSO3.70 °C3.30 °C 
07:15:003.60 °C1018.30 hPa97.00 %3.20 °C 
07:00:003.40 °C1018.40 hPa97.00 %3.00 °C 
06:45:003.60 °C1018.50 hPa97.00 %3.60 km/hOSO3.60 °C3.20 °C 
06:30:003.60 °C1018.50 hPa97.00 %3.20 °C 
06:15:003.50 °C1018.50 hPa97.00 %3.10 °C 
06:00:003.50 °C1018.30 hPa97.00 %3.10 °C 
05:45:003.30 °C1018.40 hPa96.00 %2.70 °C 
05:30:003.30 °C1018.60 hPa96.00 %3.60 km/hO3.30 °C2.70 °C 
05:15:002.90 °C1018.70 hPa96.00 %2.30 °C 
05:00:003.10 °C1018.80 hPa96.00 %2.50 °C 
04:45:003.30 °C1018.80 hPa96.00 %2.70 °C 
04:30:003.10 °C1018.80 hPa96.00 %2.50 °C 
04:15:003.30 °C1018.80 hPa96.00 %2.70 °C 
04:00:003.70 °C1018.90 hPa97.00 %3.30 °C 
03:45:004.30 °C1019.20 hPa96.00 %3.70 °C 
03:30:004.70 °C1019.10 hPa97.00 %4.30 °C 
03:15:004.60 °C1019.40 hPa96.00 %4.32 km/hSSW4.60 °C4.00 °C 
03:00:005.10 °C1019.30 hPa97.00 %4.70 °C 
02:45:004.40 °C1019.30 hPa96.00 %6.48 km/hSO2.90 °C3.80 °C 
02:30:004.40 °C1019.50 hPa96.00 %3.80 °C 
02:15:005.20 °C1019.60 hPa96.00 %2.16 km/hSO5.20 °C4.60 °C 
02:00:005.20 °C1019.50 hPa96.00 %7.92 km/hSSW3.40 °C4.60 °C 
01:45:004.80 °C1019.50 hPa97.00 %4.40 °C 
01:30:004.20 °C1019.50 hPa96.00 %3.60 °C 
01:15:004.40 °C1019.60 hPa96.00 %3.80 °C 
01:00:004.60 °C1019.60 hPa96.00 %4.00 °C 
00:45:004.80 °C1019.70 hPa96.00 %4.20 °C 
00:30:004.50 °C1019.60 hPa96.00 %3.90 °C 
00:15:004.80 °C1019.70 hPa96.00 %4.20 °C 
00:00:005.10 °C1019.90 hPa96.00 %4.50 °C 

Permanenter Link zu dieser Seite: Wetter im Erzgebirge am 20.12.2015
Performance-Info: Die Erstellung der Seite / Statistik(en) / Tabelle(n) erforderte 5 Datenbankserver-Abfrage(n) und dauerte 123 Millisekunden. (Dieser Messwert ist von der Gesamt-Auslastung des Servers abhängig.)
Erzgebirge - Wetter | Erzgebirge - Wetter (Mobilgeräte) | Komplette Klimadatenbank